sensor_id;sensor_type;location;lat;lon;timestamp;temperature;humidity
5200;DHT22;2619;47.868;11.892;2023-03-01T00:02:00;0.10;99.90
5200;DHT22;2619;47.868;11.892;2023-03-01T00:04:26;0.20;99.90
5200;DHT22;2619;47.868;11.892;2023-03-01T00:06:53;0.20;99.90
5200;DHT22;2619;47.868;11.892;2023-03-01T00:09:19;0.20;99.90
5200;DHT22;2619;47.868;11.892;2023-03-01T00:11:45;0.20;99.90
5200;DHT22;2619;47.868;11.892;2023-03-01T00:14:11;0.20;99.90
5200;DHT22;2619;47.868;11.892;2023-03-01T00:16:39;0.20;99.90
5200;DHT22;2619;47.868;11.892;2023-03-01T00:19:06;0.30;99.90
5200;DHT22;2619;47.868;11.892;2023-03-01T00:21:32;0.30;99.90
5200;DHT22;2619;47.868;11.892;2023-03-01T00:23:59;0.30;99.90
5200;DHT22;2619;47.868;11.892;2023-03-01T00:26:25;0.30;99.90
5200;DHT22;2619;47.868;11.892;2023-03-01T00:28:51;0.30;99.90
5200;DHT22;2619;47.868;11.892;2023-03-01T00:31:19;0.20;99.90
5200;DHT22;2619;47.868;11.892;2023-03-01T00:33:46;0.20;99.90
5200;DHT22;2619;47.868;11.892;2023-03-01T00:36:13;0.20;99.90
5200;DHT22;2619;47.868;11.892;2023-03-01T00:38:43;0.20;99.90
5200;DHT22;2619;47.868;11.892;2023-03-01T00:41:15;0.30;99.90
5200;DHT22;2619;47.868;11.892;2023-03-01T00:43:42;0.20;99.90
5200;DHT22;2619;47.868;11.892;2023-03-01T00:46:10;0.30;99.90
5200;DHT22;2619;47.868;11.892;2023-03-01T00:48:36;0.30;99.90
5200;DHT22;2619;47.868;11.892;2023-03-01T00:53:31;0.30;99.90
5200;DHT22;2619;47.868;11.892;2023-03-01T00:55:58;0.30;99.90
5200;DHT22;2619;47.868;11.892;2023-03-01T00:58:24;0.40;99.90
5200;DHT22;2619;47.868;11.892;2023-03-01T01:00:49;0.30;99.90
5200;DHT22;2619;47.868;11.892;2023-03-01T01:03:15;0.30;99.90
5200;DHT22;2619;47.868;11.892;2023-03-01T01:05:41;0.40;99.90
5200;DHT22;2619;47.868;11.892;2023-03-01T01:08:06;0.40;99.90
5200;DHT22;2619;47.868;11.892;2023-03-01T01:10:34;0.40;99.90
5200;DHT22;2619;47.868;11.892;2023-03-01T01:12:59;0.40;99.90
5200;DHT22;2619;47.868;11.892;2023-03-01T01:15:25;0.40;99.90
5200;DHT22;2619;47.868;11.892;2023-03-01T01:17:51;0.30;99.90
5200;DHT22;2619;47.868;11.892;2023-03-01T01:20:17;0.30;99.90
5200;DHT22;2619;47.868;11.892;2023-03-01T01:22:42;0.40;99.90
5200;DHT22;2619;47.868;11.892;2023-03-01T01:25:08;0.30;99.90
5200;DHT22;2619;47.868;11.892;2023-03-01T01:27:34;0.30;99.90
5200;DHT22;2619;47.868;11.892;2023-03-01T01:29:59;0.30;99.90
5200;DHT22;2619;47.868;11.892;2023-03-01T01:32:25;0.30;99.90
5200;DHT22;2619;47.868;11.892;2023-03-01T01:34:51;0.30;99.90
5200;DHT22;2619;47.868;11.892;2023-03-01T01:37:16;0.30;99.90
5200;DHT22;2619;47.868;11.892;2023-03-01T01:39:42;0.30;99.90
5200;DHT22;2619;47.868;11.892;2023-03-01T01:42:18;0.30;99.90
5200;DHT22;2619;47.868;11.892;2023-03-01T01:44:47;0.30;99.90
5200;DHT22;2619;47.868;11.892;2023-03-01T01:47:16;0.20;99.90
5200;DHT22;2619;47.868;11.892;2023-03-01T01:49:52;0.20;99.90
5200;DHT22;2619;47.868;11.892;2023-03-01T01:52:25;0.10;99.90
5200;DHT22;2619;47.868;11.892;2023-03-01T01:55:31;0.20;99.90
5200;DHT22;2619;47.868;11.892;2023-03-01T01:58:01;0.20;99.90
5200;DHT22;2619;47.868;11.892;2023-03-01T02:00:29;0.20;99.90
5200;DHT22;2619;47.868;11.892;2023-03-01T02:02:57;0.20;99.90
5200;DHT22;2619;47.868;11.892;2023-03-01T02:05:32;0.20;99.90
5200;DHT22;2619;47.868;11.892;2023-03-01T02:07:58;0.30;99.90
5200;DHT22;2619;47.868;11.892;2023-03-01T02:10:24;0.30;99.90
5200;DHT22;2619;47.868;11.892;2023-03-01T02:12:51;0.30;99.90
5200;DHT22;2619;47.868;11.892;2023-03-01T02:15:17;0.30;99.90
5200;DHT22;2619;47.868;11.892;2023-03-01T02:17:43;0.30;99.90
5200;DHT22;2619;47.868;11.892;2023-03-01T02:22:56;0.20;99.90
5200;DHT22;2619;47.868;11.892;2023-03-01T02:30:36;0.10;99.90
5200;DHT22;2619;47.868;11.892;2023-03-01T02:33:03;0.20;99.90
5200;DHT22;2619;47.868;11.892;2023-03-01T02:35:33;0.20;99.90
5200;DHT22;2619;47.868;11.892;2023-03-01T02:38:01;0.20;99.90
5200;DHT22;2619;47.868;11.892;2023-03-01T02:40:28;0.20;99.90
5200;DHT22;2619;47.868;11.892;2023-03-01T02:42:57;0.20;99.90
5200;DHT22;2619;47.868;11.892;2023-03-01T02:45:25;0.20;99.90
5200;DHT22;2619;47.868;11.892;2023-03-01T02:47:53;0.10;99.90
5200;DHT22;2619;47.868;11.892;2023-03-01T02:53:16;0.10;99.90
5200;DHT22;2619;47.868;11.892;2023-03-01T02:55:45;0.00;99.90
5200;DHT22;2619;47.868;11.892;2023-03-01T02:58:11;0.00;99.90
5200;DHT22;2619;47.868;11.892;2023-03-01T03:00:40;-0.10;99.90
5200;DHT22;2619;47.868;11.892;2023-03-01T03:03:17;-0.10;99.90
5200;DHT22;2619;47.868;11.892;2023-03-01T03:05:44;0.00;99.90
5200;DHT22;2619;47.868;11.892;2023-03-01T03:08:10;0.00;99.90
5200;DHT22;2619;47.868;11.892;2023-03-01T03:10:39;0.00;99.90
5200;DHT22;2619;47.868;11.892;2023-03-01T03:13:14;0.00;99.90
5200;DHT22;2619;47.868;11.892;2023-03-01T03:15:41;0.00;99.90
5200;DHT22;2619;47.868;11.892;2023-03-01T03:18:10;0.00;99.90
5200;DHT22;2619;47.868;11.892;2023-03-01T03:20:38;0.00;99.90
5200;DHT22;2619;47.868;11.892;2023-03-01T03:23:04;0.10;99.90
5200;DHT22;2619;47.868;11.892;2023-03-01T03:25:30;0.10;99.90
5200;DHT22;2619;47.868;11.892;2023-03-01T03:27:56;0.20;99.90
5200;DHT22;2619;47.868;11.892;2023-03-01T03:30:28;0.20;99.90
5200;DHT22;2619;47.868;11.892;2023-03-01T03:32:55;0.10;99.90
5200;DHT22;2619;47.868;11.892;2023-03-01T03:35:27;0.10;99.90
5200;DHT22;2619;47.868;11.892;2023-03-01T03:37:56;0.10;99.90
5200;DHT22;2619;47.868;11.892;2023-03-01T03:40:42;0.20;99.90
5200;DHT22;2619;47.868;11.892;2023-03-01T03:43:10;0.20;99.90
5200;DHT22;2619;47.868;11.892;2023-03-01T03:45:37;0.20;99.90
5200;DHT22;2619;47.868;11.892;2023-03-01T03:48:04;0.30;99.90
5200;DHT22;2619;47.868;11.892;2023-03-01T03:50:30;0.20;99.90
5200;DHT22;2619;47.868;11.892;2023-03-01T03:52:56;0.20;99.90
5200;DHT22;2619;47.868;11.892;2023-03-01T03:55:22;0.10;99.90
5200;DHT22;2619;47.868;11.892;2023-03-01T03:57:48;0.10;99.90
5200;DHT22;2619;47.868;11.892;2023-03-01T04:00:21;0.00;99.90
5200;DHT22;2619;47.868;11.892;2023-03-01T04:02:49;-0.20;99.90
5200;DHT22;2619;47.868;11.892;2023-03-01T04:05:16;-0.20;99.90
5200;DHT22;2619;47.868;11.892;2023-03-01T04:07:43;-0.20;99.90
5200;DHT22;2619;47.868;11.892;2023-03-01T04:10:12;-0.20;99.90
5200;DHT22;2619;47.868;11.892;2023-03-01T04:12:38;-0.20;99.90
5200;DHT22;2619;47.868;11.892;2023-03-01T04:15:05;-0.10;99.90
5200;DHT22;2619;47.868;11.892;2023-03-01T04:17:43;-0.20;99.90
5200;DHT22;2619;47.868;11.892;2023-03-01T04:20:11;-0.20;99.90
5200;DHT22;2619;47.868;11.892;2023-03-01T04:22:38;-0.20;99.90
5200;DHT22;2619;47.868;11.892;2023-03-01T04:25:04;-0.30;99.90
5200;DHT22;2619;47.868;11.892;2023-03-01T04:27:33;-0.40;99.90
5200;DHT22;2619;47.868;11.892;2023-03-01T04:29:59;-0.40;99.90
5200;DHT22;2619;47.868;11.892;2023-03-01T04:32:24;-0.40;99.90
5200;DHT22;2619;47.868;11.892;2023-03-01T04:34:50;-0.40;99.90
5200;DHT22;2619;47.868;11.892;2023-03-01T04:37:16;-0.40;99.90
5200;DHT22;2619;47.868;11.892;2023-03-01T04:39:41;-0.40;99.90
5200;DHT22;2619;47.868;11.892;2023-03-01T04:42:11;-0.40;99.90
5200;DHT22;2619;47.868;11.892;2023-03-01T04:44:37;-0.40;99.90
5200;DHT22;2619;47.868;11.892;2023-03-01T04:47:03;-0.50;99.90
5200;DHT22;2619;47.868;11.892;2023-03-01T04:49:28;-0.50;99.90
5200;DHT22;2619;47.868;11.892;2023-03-01T04:51:54;-0.60;99.90
5200;DHT22;2619;47.868;11.892;2023-03-01T04:54:20;-0.60;99.90
5200;DHT22;2619;47.868;11.892;2023-03-01T04:56:45;-0.50;99.90
5200;DHT22;2619;47.868;11.892;2023-03-01T04:59:11;-0.50;99.90
5200;DHT22;2619;47.868;11.892;2023-03-01T05:01:38;-0.50;99.90
5200;DHT22;2619;47.868;11.892;2023-03-01T05:04:03;-0.40;99.90
5200;DHT22;2619;47.868;11.892;2023-03-01T05:06:31;-0.30;99.90
5200;DHT22;2619;47.868;11.892;2023-03-01T05:08:56;-0.20;99.90
5200;DHT22;2619;47.868;11.892;2023-03-01T05:11:22;-0.20;99.90
5200;DHT22;2619;47.868;11.892;2023-03-01T05:13:48;-0.10;99.90
5200;DHT22;2619;47.868;11.892;2023-03-01T05:16:15;-0.10;99.90
5200;DHT22;2619;47.868;11.892;2023-03-01T05:18:42;-0.20;99.90
5200;DHT22;2619;47.868;11.892;2023-03-01T05:21:11;-0.20;99.90
5200;DHT22;2619;47.868;11.892;2023-03-01T05:23:37;-0.20;99.90
5200;DHT22;2619;47.868;11.892;2023-03-01T05:26:04;-0.20;99.90
5200;DHT22;2619;47.868;11.892;2023-03-01T05:28:31;-0.30;99.90
5200;DHT22;2619;47.868;11.892;2023-03-01T05:30:57;-0.20;99.90
5200;DHT22;2619;47.868;11.892;2023-03-01T05:33:24;-0.30;99.90
5200;DHT22;2619;47.868;11.892;2023-03-01T05:35:50;-0.30;99.90
5200;DHT22;2619;47.868;11.892;2023-03-01T05:38:17;-0.30;99.90
5200;DHT22;2619;47.868;11.892;2023-03-01T05:40:44;-0.40;99.90
5200;DHT22;2619;47.868;11.892;2023-03-01T05:43:10;-0.50;99.90
5200;DHT22;2619;47.868;11.892;2023-03-01T05:45:37;-0.50;99.90
5200;DHT22;2619;47.868;11.892;2023-03-01T05:48:04;-0.50;99.90
5200;DHT22;2619;47.868;11.892;2023-03-01T05:50:37;-0.50;99.90
5200;DHT22;2619;47.868;11.892;2023-03-01T05:53:09;-0.50;99.90
5200;DHT22;2619;47.868;11.892;2023-03-01T05:55:36;-0.50;99.90
5200;DHT22;2619;47.868;11.892;2023-03-01T05:58:08;-0.50;99.90
5200;DHT22;2619;47.868;11.892;2023-03-01T06:00:34;-0.60;99.90
5200;DHT22;2619;47.868;11.892;2023-03-01T06:03:00;-0.50;99.90
5200;DHT22;2619;47.868;11.892;2023-03-01T06:05:27;-0.60;99.90
5200;DHT22;2619;47.868;11.892;2023-03-01T06:07:53;-0.50;99.90
5200;DHT22;2619;47.868;11.892;2023-03-01T06:10:21;-0.50;99.90
5200;DHT22;2619;47.868;11.892;2023-03-01T06:12:47;-0.60;99.90
5200;DHT22;2619;47.868;11.892;2023-03-01T06:15:14;-0.60;99.90
5200;DHT22;2619;47.868;11.892;2023-03-01T06:17:42;-0.50;99.90
5200;DHT22;2619;47.868;11.892;2023-03-01T06:20:18;-0.60;99.90
5200;DHT22;2619;47.868;11.892;2023-03-01T06:22:44;-0.70;99.90
5200;DHT22;2619;47.868;11.892;2023-03-01T06:25:12;-0.70;99.90
5200;DHT22;2619;47.868;11.892;2023-03-01T06:27:39;-0.70;99.90
5200;DHT22;2619;47.868;11.892;2023-03-01T06:30:05;-0.70;99.90
5200;DHT22;2619;47.868;11.892;2023-03-01T06:32:32;-0.60;99.90
5200;DHT22;2619;47.868;11.892;2023-03-01T06:34:58;-0.50;99.90
5200;DHT22;2619;47.868;11.892;2023-03-01T06:37:24;-0.50;99.90
5200;DHT22;2619;47.868;11.892;2023-03-01T06:39:50;-0.50;99.90
5200;DHT22;2619;47.868;11.892;2023-03-01T06:42:16;-0.50;99.90
5200;DHT22;2619;47.868;11.892;2023-03-01T06:44:41;-0.60;99.90
5200;DHT22;2619;47.868;11.892;2023-03-01T06:47:07;-0.50;99.90
5200;DHT22;2619;47.868;11.892;2023-03-01T06:49:33;-0.50;99.90
5200;DHT22;2619;47.868;11.892;2023-03-01T06:51:58;-0.40;99.90
5200;DHT22;2619;47.868;11.892;2023-03-01T06:54:24;-0.40;99.90
5200;DHT22;2619;47.868;11.892;2023-03-01T06:56:50;-0.30;99.90
5200;DHT22;2619;47.868;11.892;2023-03-01T06:59:16;-0.20;99.90
5200;DHT22;2619;47.868;11.892;2023-03-01T07:01:42;-0.20;99.90
5200;DHT22;2619;47.868;11.892;2023-03-01T07:04:09;-0.20;99.90
5200;DHT22;2619;47.868;11.892;2023-03-01T07:06:34;-0.20;99.90
5200;DHT22;2619;47.868;11.892;2023-03-01T07:09:00;-0.20;99.90
5200;DHT22;2619;47.868;11.892;2023-03-01T07:11:26;-0.20;99.90
5200;DHT22;2619;47.868;11.892;2023-03-01T07:13:51;-0.20;99.90
5200;DHT22;2619;47.868;11.892;2023-03-01T07:16:17;-0.10;99.90
5200;DHT22;2619;47.868;11.892;2023-03-01T07:18:43;-0.10;99.90
5200;DHT22;2619;47.868;11.892;2023-03-01T07:21:11;0.00;99.90
5200;DHT22;2619;47.868;11.892;2023-03-01T07:23:37;0.00;99.90
5200;DHT22;2619;47.868;11.892;2023-03-01T07:26:03;0.00;99.90
5200;DHT22;2619;47.868;11.892;2023-03-01T07:28:28;0.10;99.90
5200;DHT22;2619;47.868;11.892;2023-03-01T07:30:54;0.20;99.90
5200;DHT22;2619;47.868;11.892;2023-03-01T07:33:20;0.20;99.90
5200;DHT22;2619;47.868;11.892;2023-03-01T07:35:46;0.20;99.90
5200;DHT22;2619;47.868;11.892;2023-03-01T07:38:12;0.00;99.90
5200;DHT22;2619;47.868;11.892;2023-03-01T07:40:37;0.00;99.90
5200;DHT22;2619;47.868;11.892;2023-03-01T07:43:03;0.00;99.90
5200;DHT22;2619;47.868;11.892;2023-03-01T07:45:29;0.00;99.90
5200;DHT22;2619;47.868;11.892;2023-03-01T07:47:55;0.00;99.90
5200;DHT22;2619;47.868;11.892;2023-03-01T07:50:22;0.10;99.90
5200;DHT22;2619;47.868;11.892;2023-03-01T07:52:50;0.20;99.90
5200;DHT22;2619;47.868;11.892;2023-03-01T07:55:16;0.20;99.90
5200;DHT22;2619;47.868;11.892;2023-03-01T07:57:42;0.20;99.90
5200;DHT22;2619;47.868;11.892;2023-03-01T08:00:10;0.20;99.90
5200;DHT22;2619;47.868;11.892;2023-03-01T08:02:36;0.30;99.90
5200;DHT22;2619;47.868;11.892;2023-03-01T08:05:02;0.30;99.90
5200;DHT22;2619;47.868;11.892;2023-03-01T08:07:27;0.30;99.90
5200;DHT22;2619;47.868;11.892;2023-03-01T08:09:53;0.30;99.90
5200;DHT22;2619;47.868;11.892;2023-03-01T08:12:19;0.40;99.90
5200;DHT22;2619;47.868;11.892;2023-03-01T08:14:44;0.50;99.90
5200;DHT22;2619;47.868;11.892;2023-03-01T08:17:10;0.60;99.90
5200;DHT22;2619;47.868;11.892;2023-03-01T08:19:38;0.60;99.90
5200;DHT22;2619;47.868;11.892;2023-03-01T08:22:04;0.60;99.90
5200;DHT22;2619;47.868;11.892;2023-03-01T08:24:29;0.90;99.90
5200;DHT22;2619;47.868;11.892;2023-03-01T08:26:55;0.90;99.90
5200;DHT22;2619;47.868;11.892;2023-03-01T08:29:21;1.20;99.90
5200;DHT22;2619;47.868;11.892;2023-03-01T08:31:47;1.30;99.90
5200;DHT22;2619;47.868;11.892;2023-03-01T08:34:15;1.40;99.90
5200;DHT22;2619;47.868;11.892;2023-03-01T08:36:43;1.30;99.90
5200;DHT22;2619;47.868;11.892;2023-03-01T08:39:11;1.20;99.90
5200;DHT22;2619;47.868;11.892;2023-03-01T08:41:38;1.00;99.90
5200;DHT22;2619;47.868;11.892;2023-03-01T08:44:05;1.00;99.90
5200;DHT22;2619;47.868;11.892;2023-03-01T08:46:33;1.40;99.90
5200;DHT22;2619;47.868;11.892;2023-03-01T08:48:59;1.50;99.90
5200;DHT22;2619;47.868;11.892;2023-03-01T08:51:26;1.30;99.90
5200;DHT22;2619;47.868;11.892;2023-03-01T08:53:52;1.20;99.90
5200;DHT22;2619;47.868;11.892;2023-03-01T08:56:18;1.50;99.90
5200;DHT22;2619;47.868;11.892;2023-03-01T08:58:46;1.80;99.90
5200;DHT22;2619;47.868;11.892;2023-03-01T09:01:14;2.00;99.90
5200;DHT22;2619;47.868;11.892;2023-03-01T09:03:40;2.30;99.90
5200;DHT22;2619;47.868;11.892;2023-03-01T09:06:06;2.60;99.90
5200;DHT22;2619;47.868;11.892;2023-03-01T09:08:41;2.90;99.90
5200;DHT22;2619;47.868;11.892;2023-03-01T09:11:09;3.00;99.90
5200;DHT22;2619;47.868;11.892;2023-03-01T09:13:36;2.40;99.90
5200;DHT22;2619;47.868;11.892;2023-03-01T09:16:04;2.50;99.90
5200;DHT22;2619;47.868;11.892;2023-03-01T09:18:31;2.50;99.90
5200;DHT22;2619;47.868;11.892;2023-03-01T09:21:14;2.70;99.90
5200;DHT22;2619;47.868;11.892;2023-03-01T09:23:44;3.30;99.90
5200;DHT22;2619;47.868;11.892;2023-03-01T09:26:13;3.50;99.90
5200;DHT22;2619;47.868;11.892;2023-03-01T09:28:39;3.50;99.90
5200;DHT22;2619;47.868;11.892;2023-03-01T09:31:06;3.60;99.90
5200;DHT22;2619;47.868;11.892;2023-03-01T09:33:32;3.90;99.90
5200;DHT22;2619;47.868;11.892;2023-03-01T09:35:59;4.10;99.90
5200;DHT22;2619;47.868;11.892;2023-03-01T09:38:25;3.90;99.90
5200;DHT22;2619;47.868;11.892;2023-03-01T09:40:51;4.00;99.90
5200;DHT22;2619;47.868;11.892;2023-03-01T09:43:25;4.20;99.90
5200;DHT22;2619;47.868;11.892;2023-03-01T09:45:55;3.90;99.90
5200;DHT22;2619;47.868;11.892;2023-03-01T09:48:25;4.00;99.90
5200;DHT22;2619;47.868;11.892;2023-03-01T09:50:52;4.30;99.90
5200;DHT22;2619;47.868;11.892;2023-03-01T09:53:21;4.40;99.90
5200;DHT22;2619;47.868;11.892;2023-03-01T09:56:02;4.30;99.90
5200;DHT22;2619;47.868;11.892;2023-03-01T10:09:52;3.90;99.90
5200;DHT22;2619;47.868;11.892;2023-03-01T10:12:23;3.60;99.90
5200;DHT22;2619;47.868;11.892;2023-03-01T10:15:13;3.40;99.90
5200;DHT22;2619;47.868;11.892;2023-03-01T10:17:46;2.90;99.90
5200;DHT22;2619;47.868;11.892;2023-03-01T10:20:19;2.90;99.90
5200;DHT22;2619;47.868;11.892;2023-03-01T10:22:45;3.00;99.90
5200;DHT22;2619;47.868;11.892;2023-03-01T10:25:20;3.10;99.90
5200;DHT22;2619;47.868;11.892;2023-03-01T10:27:53;2.80;99.90
5200;DHT22;2619;47.868;11.892;2023-03-01T10:30:38;3.40;99.90
5200;DHT22;2619;47.868;11.892;2023-03-01T10:33:20;3.40;99.90
5200;DHT22;2619;47.868;11.892;2023-03-01T10:35:47;3.30;99.90
5200;DHT22;2619;47.868;11.892;2023-03-01T10:38:15;3.30;99.90
5200;DHT22;2619;47.868;11.892;2023-03-01T10:40:55;3.40;99.90
5200;DHT22;2619;47.868;11.892;2023-03-01T10:43:27;3.60;99.90
5200;DHT22;2619;47.868;11.892;2023-03-01T10:45:55;3.60;99.90
5200;DHT22;2619;47.868;11.892;2023-03-01T10:48:22;3.90;99.90
5200;DHT22;2619;47.868;11.892;2023-03-01T10:53:48;4.20;99.90
5200;DHT22;2619;47.868;11.892;2023-03-01T10:56:15;4.10;99.90
5200;DHT22;2619;47.868;11.892;2023-03-01T10:58:59;4.20;99.90
5200;DHT22;2619;47.868;11.892;2023-03-01T11:01:35;4.30;99.90
5200;DHT22;2619;47.868;11.892;2023-03-01T11:06:37;4.20;99.90
5200;DHT22;2619;47.868;11.892;2023-03-01T11:11:44;3.10;99.90
5200;DHT22;2619;47.868;11.892;2023-03-01T11:14:17;3.00;99.90
5200;DHT22;2619;47.868;11.892;2023-03-01T11:16:49;3.40;99.90
5200;DHT22;2619;47.868;11.892;2023-03-01T11:19:23;3.80;99.90
5200;DHT22;2619;47.868;11.892;2023-03-01T11:22:10;4.00;99.90
5200;DHT22;2619;47.868;11.892;2023-03-01T11:24:40;3.90;99.90
5200;DHT22;2619;47.868;11.892;2023-03-01T11:27:43;4.00;99.90
5200;DHT22;2619;47.868;11.892;2023-03-01T11:30:28;4.30;99.90
5200;DHT22;2619;47.868;11.892;2023-03-01T11:35:37;4.30;99.90
5200;DHT22;2619;47.868;11.892;2023-03-01T11:38:26;4.00;99.90
5200;DHT22;2619;47.868;11.892;2023-03-01T11:41:02;3.80;99.90
5200;DHT22;2619;47.868;11.892;2023-03-01T11:48:57;3.80;99.90
5200;DHT22;2619;47.868;11.892;2023-03-01T12:03:09;4.40;99.90
5200;DHT22;2619;47.868;11.892;2023-03-01T12:05:54;4.30;99.90
5200;DHT22;2619;47.868;11.892;2023-03-01T12:19:18;4.60;99.90
5200;DHT22;2619;47.868;11.892;2023-03-01T12:27:36;4.20;99.90
5200;DHT22;2619;47.868;11.892;2023-03-01T12:38:33;3.30;99.90
5200;DHT22;2619;47.868;11.892;2023-03-01T12:43:51;3.60;99.90
5200;DHT22;2619;47.868;11.892;2023-03-01T12:51:26;2.70;99.90
5200;DHT22;2619;47.868;11.892;2023-03-01T12:53:55;2.40;99.90
5200;DHT22;2619;47.868;11.892;2023-03-01T12:56:28;2.50;99.90
5200;DHT22;2619;47.868;11.892;2023-03-01T13:02:37;2.40;99.90
5200;DHT22;2619;47.868;11.892;2023-03-01T13:07:34;2.50;99.90
5200;DHT22;2619;47.868;11.892;2023-03-01T13:10:58;2.60;99.90
5200;DHT22;2619;47.868;11.892;2023-03-01T13:17:58;3.30;99.90
5200;DHT22;2619;47.868;11.892;2023-03-01T13:20:32;3.60;99.90
5200;DHT22;2619;47.868;11.892;2023-03-01T13:23:26;3.50;99.90
5200;DHT22;2619;47.868;11.892;2023-03-01T13:26:03;3.20;99.90
5200;DHT22;2619;47.868;11.892;2023-03-01T13:31:03;3.30;99.90
5200;DHT22;2619;47.868;11.892;2023-03-01T13:35:59;3.00;99.90
5200;DHT22;2619;47.868;11.892;2023-03-01T13:38:45;2.90;99.90
5200;DHT22;2619;47.868;11.892;2023-03-01T13:44:13;2.50;99.90
5200;DHT22;2619;47.868;11.892;2023-03-01T13:46:44;2.60;99.90
5200;DHT22;2619;47.868;11.892;2023-03-01T13:49:15;2.80;99.90
5200;DHT22;2619;47.868;11.892;2023-03-01T13:51:41;2.70;99.90
5200;DHT22;2619;47.868;11.892;2023-03-01T13:54:12;2.60;99.90
5200;DHT22;2619;47.868;11.892;2023-03-01T13:56:40;2.70;99.90
5200;DHT22;2619;47.868;11.892;2023-03-01T13:59:14;2.60;99.90
5200;DHT22;2619;47.868;11.892;2023-03-01T14:01:40;2.70;99.90
5200;DHT22;2619;47.868;11.892;2023-03-01T14:04:35;2.70;99.90
5200;DHT22;2619;47.868;11.892;2023-03-01T14:09:41;2.80;99.90
5200;DHT22;2619;47.868;11.892;2023-03-01T14:12:39;3.00;99.90
5200;DHT22;2619;47.868;11.892;2023-03-01T14:15:44;3.00;99.90
5200;DHT22;2619;47.868;11.892;2023-03-01T14:18:04;2.90;99.90
5200;DHT22;2619;47.868;11.892;2023-03-01T14:20:39;3.00;99.90
5200;DHT22;2619;47.868;11.892;2023-03-01T14:23:13;3.10;99.90
5200;DHT22;2619;47.868;11.892;2023-03-01T14:25:50;3.20;99.90
5200;DHT22;2619;47.868;11.892;2023-03-01T14:28:32;3.20;99.90
5200;DHT22;2619;47.868;11.892;2023-03-01T14:31:01;3.20;99.90
5200;DHT22;2619;47.868;11.892;2023-03-01T14:33:36;3.10;99.90
5200;DHT22;2619;47.868;11.892;2023-03-01T14:36:10;3.10;99.90
5200;DHT22;2619;47.868;11.892;2023-03-01T14:38:46;3.10;99.90
5200;DHT22;2619;47.868;11.892;2023-03-01T14:41:19;3.00;99.90
5200;DHT22;2619;47.868;11.892;2023-03-01T14:43:50;3.00;99.90
5200;DHT22;2619;47.868;11.892;2023-03-01T14:46:26;3.00;99.90
5200;DHT22;2619;47.868;11.892;2023-03-01T14:48:57;2.90;99.90
5200;DHT22;2619;47.868;11.892;2023-03-01T14:51:26;2.90;99.90
5200;DHT22;2619;47.868;11.892;2023-03-01T14:53:52;2.90;99.90
5200;DHT22;2619;47.868;11.892;2023-03-01T14:56:19;2.80;99.90
5200;DHT22;2619;47.868;11.892;2023-03-01T14:58:45;2.80;99.90
5200;DHT22;2619;47.868;11.892;2023-03-01T15:01:16;2.90;99.90
5200;DHT22;2619;47.868;11.892;2023-03-01T15:03:49;2.90;99.90
5200;DHT22;2619;47.868;11.892;2023-03-01T15:06:18;3.00;99.90
5200;DHT22;2619;47.868;11.892;2023-03-01T15:08:48;3.00;99.90
5200;DHT22;2619;47.868;11.892;2023-03-01T15:11:26;3.10;99.90
5200;DHT22;2619;47.868;11.892;2023-03-01T15:13:52;3.00;99.90
5200;DHT22;2619;47.868;11.892;2023-03-01T15:18:55;2.90;99.90
5200;DHT22;2619;47.868;11.892;2023-03-01T15:21:30;3.00;99.90
5200;DHT22;2619;47.868;11.892;2023-03-01T15:24:16;3.10;99.90
5200;DHT22;2619;47.868;11.892;2023-03-01T15:27:01;3.10;99.90
5200;DHT22;2619;47.868;11.892;2023-03-01T15:29:33;3.10;99.90
5200;DHT22;2619;47.868;11.892;2023-03-01T15:32:33;3.10;99.90
5200;DHT22;2619;47.868;11.892;2023-03-01T15:35:00;3.00;99.90
5200;DHT22;2619;47.868;11.892;2023-03-01T15:37:47;3.00;99.90
5200;DHT22;2619;47.868;11.892;2023-03-01T15:40:28;3.00;99.90
5200;DHT22;2619;47.868;11.892;2023-03-01T15:43:08;3.00;99.90
5200;DHT22;2619;47.868;11.892;2023-03-01T15:45:58;2.90;99.90
5200;DHT22;2619;47.868;11.892;2023-03-01T15:48:23;2.90;99.90
5200;DHT22;2619;47.868;11.892;2023-03-01T15:50:58;2.70;99.90
5200;DHT22;2619;47.868;11.892;2023-03-01T15:53:26;2.70;99.90
5200;DHT22;2619;47.868;11.892;2023-03-01T15:55:52;2.60;99.90
5200;DHT22;2619;47.868;11.892;2023-03-01T15:58:21;2.50;99.90
5200;DHT22;2619;47.868;11.892;2023-03-01T16:00:48;2.40;99.90
5200;DHT22;2619;47.868;11.892;2023-03-01T16:03:17;2.30;99.90
5200;DHT22;2619;47.868;11.892;2023-03-01T16:05:47;2.20;99.90
5200;DHT22;2619;47.868;11.892;2023-03-01T16:08:14;2.10;99.90
5200;DHT22;2619;47.868;11.892;2023-03-01T16:10:41;2.00;99.90
5200;DHT22;2619;47.868;11.892;2023-03-01T16:13:12;1.90;99.90
5200;DHT22;2619;47.868;11.892;2023-03-01T16:15:38;1.80;99.90
5200;DHT22;2619;47.868;11.892;2023-03-01T16:18:05;1.70;99.90
5200;DHT22;2619;47.868;11.892;2023-03-01T16:20:32;1.60;99.90
5200;DHT22;2619;47.868;11.892;2023-03-01T16:22:58;1.50;99.90
5200;DHT22;2619;47.868;11.892;2023-03-01T16:25:25;1.50;99.90
5200;DHT22;2619;47.868;11.892;2023-03-01T16:27:51;1.40;99.90
5200;DHT22;2619;47.868;11.892;2023-03-01T16:30:19;1.30;99.90
5200;DHT22;2619;47.868;11.892;2023-03-01T16:32:47;1.20;99.90
5200;DHT22;2619;47.868;11.892;2023-03-01T16:35:16;1.20;99.90
5200;DHT22;2619;47.868;11.892;2023-03-01T16:37:42;1.10;99.90
5200;DHT22;2619;47.868;11.892;2023-03-01T16:42:43;0.90;99.90
5200;DHT22;2619;47.868;11.892;2023-03-01T16:45:09;0.80;99.90
5200;DHT22;2619;47.868;11.892;2023-03-01T16:47:35;0.80;99.90
5200;DHT22;2619;47.868;11.892;2023-03-01T16:50:01;0.70;99.90
5200;DHT22;2619;47.868;11.892;2023-03-01T16:52:27;0.60;99.90
5200;DHT22;2619;47.868;11.892;2023-03-01T16:54:52;0.50;99.90
5200;DHT22;2619;47.868;11.892;2023-03-01T16:57:18;0.40;99.90
5200;DHT22;2619;47.868;11.892;2023-03-01T16:59:44;0.30;99.90
5200;DHT22;2619;47.868;11.892;2023-03-01T17:02:13;0.20;99.90
5200;DHT22;2619;47.868;11.892;2023-03-01T17:04:41;0.10;99.90
5200;DHT22;2619;47.868;11.892;2023-03-01T17:07:07;-0.10;99.90
5200;DHT22;2619;47.868;11.892;2023-03-01T17:09:37;-0.20;99.90
5200;DHT22;2619;47.868;11.892;2023-03-01T17:12:04;-0.30;99.90
5200;DHT22;2619;47.868;11.892;2023-03-01T17:14:30;-0.40;99.90
5200;DHT22;2619;47.868;11.892;2023-03-01T17:16:55;-0.30;99.90
5200;DHT22;2619;47.868;11.892;2023-03-01T17:19:21;-0.40;99.90
5200;DHT22;2619;47.868;11.892;2023-03-01T17:21:47;-0.30;99.90
5200;DHT22;2619;47.868;11.892;2023-03-01T17:24:12;-0.40;99.90
5200;DHT22;2619;47.868;11.892;2023-03-01T17:26:38;-0.50;99.90
5200;DHT22;2619;47.868;11.892;2023-03-01T17:29:05;-0.60;99.90
5200;DHT22;2619;47.868;11.892;2023-03-01T17:31:31;-0.60;99.90
5200;DHT22;2619;47.868;11.892;2023-03-01T17:33:57;-0.60;99.90
5200;DHT22;2619;47.868;11.892;2023-03-01T17:36:23;-0.80;99.90
5200;DHT22;2619;47.868;11.892;2023-03-01T17:38:49;-0.90;99.90
5200;DHT22;2619;47.868;11.892;2023-03-01T17:41:15;-0.90;99.90
5200;DHT22;2619;47.868;11.892;2023-03-01T17:43:44;-0.90;99.90
5200;DHT22;2619;47.868;11.892;2023-03-01T17:46:09;-1.00;99.90
5200;DHT22;2619;47.868;11.892;2023-03-01T17:48:36;-1.00;99.90
5200;DHT22;2619;47.868;11.892;2023-03-01T17:51:06;-0.90;99.90
5200;DHT22;2619;47.868;11.892;2023-03-01T17:53:31;-1.00;99.90
5200;DHT22;2619;47.868;11.892;2023-03-01T17:56:02;-1.00;99.90
5200;DHT22;2619;47.868;11.892;2023-03-01T17:58:28;-1.10;99.90
5200;DHT22;2619;47.868;11.892;2023-03-01T18:00:54;-1.10;99.90
5200;DHT22;2619;47.868;11.892;2023-03-01T18:03:20;-1.10;99.90